createdAt,value
2023-03-04T00:02:04.421Z,17.05
2023-03-04T00:04:36.056Z,13.65
2023-03-04T00:07:07.523Z,11.40
2023-03-04T00:09:46.058Z,13.10
2023-03-04T00:12:17.533Z,15.53
2023-03-04T00:14:48.951Z,17.48
2023-03-04T00:17:20.443Z,16.57
2023-03-04T00:19:52.029Z,12.70
2023-03-04T00:22:23.765Z,16.27
2023-03-04T00:24:55.264Z,14.47
2023-03-04T00:27:26.742Z,12.95
2023-03-04T00:29:58.248Z,17.20
2023-03-04T00:32:29.772Z,12.13
2023-03-04T00:35:01.259Z,16.92
2023-03-04T00:37:32.824Z,16.20
2023-03-04T00:40:04.832Z,18.50
2023-03-04T00:42:36.340Z,16.00
2023-03-04T00:45:08.974Z,13.73
2023-03-04T00:47:40.451Z,17.33
2023-03-04T00:50:12.057Z,13.67
2023-03-04T00:52:43.489Z,11.25
2023-03-04T00:55:15.046Z,14.48
2023-03-04T00:57:46.567Z,13.15
2023-03-04T01:00:18.374Z,13.98
2023-03-04T01:02:49.828Z,15.93
2023-03-04T01:05:21.390Z,17.27
2023-03-04T01:07:52.803Z,12.43
2023-03-04T01:10:24.263Z,13.25
2023-03-04T01:12:55.748Z,15.48
2023-03-04T01:15:27.386Z,16.02
2023-03-04T01:17:58.997Z,12.48
2023-03-04T01:20:30.534Z,14.77
2023-03-04T01:23:02.085Z,11.70
2023-03-04T01:25:33.549Z,19.88
2023-03-04T01:28:05.029Z,12.52
2023-03-04T01:30:36.544Z,15.23
2023-03-04T01:33:08.092Z,12.27
2023-03-04T01:35:39.507Z,19.17
2023-03-04T01:38:11.052Z,11.93
2023-03-04T01:40:42.477Z,9.85
2023-03-04T01:43:20.582Z,15.02
2023-03-04T01:45:54.220Z,14.13
2023-03-04T01:48:37.497Z,14.00
2023-03-04T01:51:17.095Z,15.77
2023-03-04T01:53:50.103Z,13.07
2023-03-04T01:56:36.298Z,11.77
2023-03-04T01:59:21.179Z,13.53
2023-03-04T02:02:00.230Z,10.82
2023-03-04T02:04:34.379Z,15.07
2023-03-04T02:07:06.450Z,10.68
2023-03-04T02:09:37.987Z,12.07
2023-03-04T02:12:09.428Z,13.85
2023-03-04T02:14:40.842Z,11.80
2023-03-04T02:17:13.165Z,13.27
2023-03-04T02:19:53.288Z,12.95
2023-03-04T02:22:24.733Z,14.30
2023-03-04T02:25:16.603Z,12.85
2023-03-04T02:27:48.161Z,12.85
2023-03-04T02:30:23.100Z,15.23
2023-03-04T02:32:54.747Z,14.20
2023-03-04T02:35:26.420Z,15.47
2023-03-04T02:37:57.872Z,12.38
2023-03-04T02:40:34.051Z,12.18
2023-03-04T02:43:05.672Z,18.27
2023-03-04T02:45:45.019Z,11.18
2023-03-04T02:48:21.738Z,15.50
2023-03-04T02:50:53.979Z,14.18
2023-03-04T02:53:25.447Z,12.85
2023-03-04T02:55:57.031Z,16.60
2023-03-04T02:58:28.976Z,10.15
2023-03-04T03:01:00.591Z,15.15
2023-03-04T03:03:32.305Z,12.38
2023-03-04T03:06:04.043Z,10.65
2023-03-04T03:08:35.507Z,12.02
2023-03-04T03:11:08.891Z,11.10
2023-03-04T03:13:41.016Z,14.17
2023-03-04T03:16:12.525Z,11.73
2023-03-04T03:18:44.027Z,12.25
2023-03-04T03:21:15.471Z,12.77
2023-03-04T03:23:47.128Z,13.52
2023-03-04T03:26:19.977Z,10.10
2023-03-04T03:28:51.442Z,12.50
2023-03-04T03:31:22.901Z,10.88
2023-03-04T03:33:54.459Z,11.48
2023-03-04T03:36:25.976Z,10.13
2023-03-04T03:38:57.731Z,13.13
2023-03-04T03:41:29.197Z,8.98
2023-03-04T03:44:00.747Z,13.38
2023-03-04T03:46:32.239Z,10.38
2023-03-04T03:49:03.773Z,11.97
2023-03-04T03:51:35.250Z,13.40
2023-03-04T03:54:06.702Z,10.40
2023-03-04T03:56:38.195Z,10.48
2023-03-04T03:59:09.651Z,8.52
2023-03-04T04:01:41.175Z,10.45
2023-03-04T04:04:12.674Z,9.40
2023-03-04T04:06:44.429Z,5.93
2023-03-04T04:09:15.864Z,11.02
2023-03-04T04:11:47.334Z,11.65
2023-03-04T04:14:18.839Z,12.02
2023-03-04T04:16:50.439Z,9.88
2023-03-04T04:19:21.903Z,9.93
2023-03-04T04:21:53.369Z,9.27
2023-03-04T04:24:24.837Z,8.60
2023-03-04T04:26:56.357Z,12.95
2023-03-04T04:29:27.834Z,11.43
2023-03-04T04:31:59.475Z,10.85
2023-03-04T04:34:30.988Z,11.27
2023-03-04T04:37:02.456Z,10.35
2023-03-04T04:39:33.968Z,9.90
2023-03-04T04:42:05.744Z,11.25
2023-03-04T04:44:37.861Z,8.15
2023-03-04T04:47:10.139Z,15.73
2023-03-04T04:49:41.670Z,13.30
2023-03-04T04:52:13.119Z,11.93
2023-03-04T04:54:49.202Z,10.55
2023-03-04T04:57:21.940Z,11.05
2023-03-04T04:59:54.710Z,7.03
2023-03-04T05:02:26.318Z,10.33
2023-03-04T05:05:03.085Z,8.65
2023-03-04T05:07:34.791Z,8.98
2023-03-04T05:10:09.743Z,6.22
2023-03-04T05:12:46.348Z,11.32
2023-03-04T05:15:20.103Z,10.93
2023-03-04T05:17:53.831Z,10.10
2023-03-04T05:20:26.552Z,6.82
2023-03-04T05:22:59.814Z,7.82
2023-03-04T05:25:34.432Z,10.65
2023-03-04T05:28:07.943Z,9.00
2023-03-04T05:30:41.368Z,7.55
2023-03-04T05:33:15.021Z,10.53
2023-03-04T05:35:47.110Z,9.68
2023-03-04T05:38:20.352Z,12.40
2023-03-04T05:40:57.936Z,11.80
2023-03-04T05:43:29.687Z,14.07
2023-03-04T05:46:02.889Z,7.53
2023-03-04T05:48:34.502Z,8.18
2023-03-04T05:51:06.204Z,12.95
2023-03-04T05:53:37.831Z,12.23
2023-03-04T05:56:13.979Z,9.25
2023-03-04T05:58:45.894Z,15.70
2023-03-04T06:01:17.915Z,10.88
2023-03-04T06:03:49.487Z,10.17
2023-03-04T06:06:21.107Z,9.52
2023-03-04T06:08:52.549Z,12.55
2023-03-04T06:11:24.016Z,9.18
2023-03-04T06:13:55.561Z,9.85
2023-03-04T06:16:27.129Z,10.82
2023-03-04T06:18:58.715Z,11.43
2023-03-04T06:21:30.271Z,10.03
2023-03-04T06:24:01.752Z,12.23
2023-03-04T06:26:33.221Z,8.35
2023-03-04T06:29:06.074Z,9.77
2023-03-04T06:31:37.713Z,10.50
2023-03-04T06:34:09.714Z,11.93
2023-03-04T06:36:41.174Z,6.57
2023-03-04T06:39:12.622Z,12.38
2023-03-04T06:41:44.051Z,12.80
2023-03-04T06:44:15.571Z,7.35
2023-03-04T06:46:47.050Z,8.57
2023-03-04T06:49:18.657Z,8.25
2023-03-04T06:51:50.132Z,9.43
2023-03-04T06:54:21.952Z,12.07
2023-03-04T06:56:53.453Z,7.65
2023-03-04T06:59:24.901Z,8.88
2023-03-04T07:01:56.381Z,9.90
2023-03-04T07:04:27.947Z,6.00
2023-03-04T07:06:59.461Z,7.03
2023-03-04T07:09:30.962Z,6.47
2023-03-04T07:12:02.587Z,5.07
2023-03-04T07:14:34.005Z,3.20
2023-03-04T07:17:05.525Z,4.97
2023-03-04T07:19:37.064Z,8.48
2023-03-04T07:22:08.662Z,4.97
2023-03-04T07:24:40.082Z,5.15
2023-03-04T07:27:11.553Z,3.75
2023-03-04T07:29:43.056Z,2.90
2023-03-04T07:32:14.549Z,3.25
2023-03-04T07:34:46.013Z,5.65
2023-03-04T07:37:17.488Z,2.17
2023-03-04T07:39:48.918Z,4.68
2023-03-04T07:42:20.368Z,2.08
2023-03-04T07:44:52.177Z,2.25
2023-03-04T07:47:23.628Z,2.97
2023-03-04T07:49:55.097Z,4.28
2023-03-04T07:52:26.588Z,3.92
2023-03-04T07:54:58.044Z,2.65
2023-03-04T07:57:29.485Z,4.40
2023-03-04T08:00:00.971Z,4.03
2023-03-04T08:02:32.442Z,3.45
2023-03-04T08:05:04.185Z,2.30
2023-03-04T08:07:35.681Z,4.57
2023-03-04T08:10:07.785Z,3.97
2023-03-04T08:12:39.258Z,4.45
2023-03-04T08:15:11.227Z,2.38
2023-03-04T08:17:42.682Z,3.13
2023-03-04T08:20:14.149Z,4.68
2023-03-04T08:22:45.572Z,2.77
2023-03-04T08:25:17.067Z,1.83
2023-03-04T08:27:48.584Z,2.60
2023-03-04T08:30:20.062Z,5.72
2023-03-04T08:32:51.580Z,4.78
2023-03-04T08:35:23.113Z,4.07
2023-03-04T08:37:54.550Z,5.10
2023-03-04T08:40:26.094Z,5.55
2023-03-04T08:42:57.594Z,2.63
2023-03-04T08:45:29.088Z,4.70
2023-03-04T08:48:00.516Z,4.22
2023-03-04T08:50:31.975Z,4.70
2023-03-04T08:53:03.512Z,4.07
2023-03-04T08:55:35.053Z,5.47
2023-03-04T08:58:07.452Z,6.55
2023-03-04T09:00:42.374Z,5.60
2023-03-04T09:03:14.911Z,5.28
2023-03-04T09:05:48.069Z,4.35
2023-03-04T09:08:19.654Z,3.17
2023-03-04T09:10:53.962Z,5.18
2023-03-04T09:13:26.515Z,6.25
2023-03-04T09:15:59.203Z,4.63
2023-03-04T09:18:30.868Z,3.78
2023-03-04T09:21:02.303Z,4.63
2023-03-04T09:23:34.091Z,3.45
2023-03-04T09:26:23.508Z,2.53
2023-03-04T09:28:59.404Z,3.58
2023-03-04T09:31:30.907Z,3.38
2023-03-04T09:34:02.550Z,4.15
2023-03-04T09:36:34.033Z,4.68
2023-03-04T09:39:06.253Z,4.95
2023-03-04T09:41:44.388Z,6.57
2023-03-04T09:44:22.966Z,5.38
2023-03-04T09:46:58.129Z,8.15
2023-03-04T09:49:30.743Z,6.55
2023-03-04T09:52:20.541Z,7.80
2023-03-04T09:55:13.450Z,5.65
2023-03-04T09:58:30.683Z,4.38
2023-03-04T10:01:25.362Z,4.60
2023-03-04T10:04:06.333Z,6.95
2023-03-04T10:06:41.565Z,3.38
2023-03-04T10:09:23.312Z,3.88
2023-03-04T10:12:05.134Z,4.68
2023-03-04T10:14:51.275Z,4.97
2023-03-04T10:17:44.411Z,4.75
2023-03-04T10:20:23.083Z,5.40
2023-03-04T10:23:02.619Z,6.22
2023-03-04T10:25:35.065Z,7.50
2023-03-04T10:28:15.501Z,6.07
2023-03-04T10:31:11.971Z,6.93
2023-03-04T10:33:43.489Z,8.77
2023-03-04T10:36:29.910Z,9.30
2023-03-04T10:39:52.054Z,9.05
2023-03-04T10:42:29.217Z,8.33
2023-03-04T10:45:01.193Z,7.15
2023-03-04T10:47:33.145Z,8.23
2023-03-04T10:50:05.912Z,10.93
2023-03-04T10:52:47.679Z,8.00
2023-03-04T10:55:24.546Z,6.70
2023-03-04T10:58:06.345Z,6.43
2023-03-04T11:00:38.457Z,5.70
2023-03-04T11:03:46.191Z,8.52
2023-03-04T11:06:21.506Z,5.65
2023-03-04T11:08:55.877Z,7.50
2023-03-04T11:11:41.517Z,6.82
2023-03-04T11:14:25.356Z,6.23
2023-03-04T11:17:02.253Z,4.00
2023-03-04T11:19:42.755Z,5.38
2023-03-04T11:22:20.142Z,4.78
2023-03-04T11:25:32.051Z,3.42
2023-03-04T11:28:12.539Z,5.53
2023-03-04T11:30:59.205Z,5.38
2023-03-04T11:33:43.894Z,6.18
2023-03-04T11:36:32.378Z,5.57
2023-03-04T11:39:11.139Z,5.55
2023-03-04T11:41:58.553Z,7.82
2023-03-04T11:44:30.900Z,6.93
2023-03-04T11:47:19.185Z,7.18
2023-03-04T11:49:53.375Z,5.53
2023-03-04T11:52:36.976Z,9.00
2023-03-04T11:55:08.456Z,5.25
2023-03-04T11:57:58.931Z,7.13
2023-03-04T12:00:30.683Z,3.50
2023-03-04T12:03:27.959Z,3.85
2023-03-04T12:06:12.109Z,2.80
2023-03-04T12:09:02.232Z,2.42
2023-03-04T12:12:17.270Z,1.90
2023-03-04T12:15:19.857Z,4.00
2023-03-04T12:18:13.185Z,2.10
2023-03-04T12:21:28.108Z,1.30
2023-03-04T12:24:18.241Z,1.73
2023-03-04T12:27:07.906Z,2.63
2023-03-04T12:30:01.129Z,3.92
2023-03-04T12:32:44.455Z,5.10
2023-03-04T12:35:45.100Z,4.88
2023-03-04T12:38:35.735Z,7.90
2023-03-04T12:41:28.304Z,7.47
2023-03-04T12:44:11.810Z,6.85
2023-03-04T12:47:07.606Z,7.13
2023-03-04T12:49:53.940Z,8.38
2023-03-04T12:52:45.593Z,7.95
2023-03-04T12:55:23.833Z,7.65
2023-03-04T12:57:57.148Z,8.10
2023-03-04T13:00:48.339Z,10.70
2023-03-04T13:03:41.559Z,9.38
2023-03-04T13:06:24.956Z,12.13
2023-03-04T13:09:18.819Z,9.40
2023-03-04T13:12:03.953Z,10.80
2023-03-04T13:14:35.509Z,12.05
2023-03-04T13:17:36.559Z,10.32
2023-03-04T13:20:40.541Z,11.40
2023-03-04T13:23:15.002Z,13.52
2023-03-04T13:26:07.961Z,8.60
2023-03-04T13:28:39.493Z,12.57
2023-03-04T13:31:10.948Z,11.67
2023-03-04T13:33:42.422Z,11.27
2023-03-04T13:36:53.769Z,11.75
2023-03-04T13:39:28.619Z,8.70
2023-03-04T13:42:01.469Z,6.03
2023-03-04T13:44:43.209Z,7.93
2023-03-04T13:47:18.620Z,8.98
2023-03-04T13:49:50.108Z,9.57
2023-03-04T13:52:42.102Z,8.02
2023-03-04T13:55:37.665Z,11.05
2023-03-04T13:58:21.137Z,10.45
2023-03-04T14:00:55.966Z,9.55
2023-03-04T14:03:30.826Z,14.30
2023-03-04T14:06:15.996Z,9.60
2023-03-04T14:08:48.735Z,11.30
2023-03-04T14:11:55.463Z,11.82
2023-03-04T14:14:30.686Z,11.63
2023-03-04T14:17:06.151Z,13.32
2023-03-04T14:19:46.022Z,14.25
2023-03-04T14:22:33.582Z,11.73
2023-03-04T14:25:07.125Z,14.68
2023-03-04T14:27:38.893Z,16.00
2023-03-04T14:30:41.722Z,12.82
2023-03-04T14:33:18.501Z,13.95
2023-03-04T14:35:52.516Z,11.25
2023-03-04T14:38:30.841Z,11.38
2023-03-04T14:41:15.161Z,11.57
2023-03-04T14:43:52.579Z,10.63
2023-03-04T14:46:29.922Z,14.65
2023-03-04T14:49:02.312Z,12.03
2023-03-04T14:51:54.027Z,15.10
2023-03-04T14:54:41.977Z,14.07
2023-03-04T14:57:21.107Z,15.13
2023-03-04T14:59:53.905Z,12.85
2023-03-04T15:02:41.239Z,13.10
2023-03-04T15:05:28.681Z,14.33
2023-03-04T15:08:06.371Z,12.20
2023-03-04T15:10:38.328Z,14.38
2023-03-04T15:13:09.778Z,15.55
2023-03-04T15:15:44.814Z,12.15
2023-03-04T15:18:24.523Z,13.82
2023-03-04T15:21:00.396Z,13.15
2023-03-04T15:23:33.148Z,15.05
2023-03-04T15:26:05.384Z,12.82
2023-03-04T15:28:38.984Z,12.85
2023-03-04T15:31:17.471Z,17.00
2023-03-04T15:33:49.386Z,9.57
2023-03-04T15:36:22.800Z,12.88
2023-03-04T15:38:54.256Z,14.00
2023-03-04T15:41:26.760Z,11.77
2023-03-04T15:43:58.222Z,12.35
2023-03-04T15:46:29.708Z,18.13
2023-03-04T15:49:01.205Z,11.57
2023-03-04T15:51:32.712Z,11.67
2023-03-04T15:54:04.816Z,10.07
2023-03-04T15:56:36.321Z,11.30
2023-03-04T15:59:14.153Z,9.45
2023-03-04T16:01:45.684Z,10.70
2023-03-04T16:04:18.112Z,10.10
2023-03-04T16:06:49.666Z,11.90
2023-03-04T16:09:21.236Z,8.98
2023-03-04T16:11:52.742Z,9.87
2023-03-04T16:14:24.159Z,10.63
2023-03-04T16:16:55.641Z,9.37
2023-03-04T16:19:27.121Z,10.57
2023-03-04T16:21:58.741Z,8.60
2023-03-04T16:24:34.014Z,11.18
2023-03-04T16:27:10.079Z,9.20
2023-03-04T16:29:41.872Z,12.43
2023-03-04T16:32:13.384Z,7.35
2023-03-04T16:34:44.848Z,7.47
2023-03-04T16:37:19.891Z,10.52
2023-03-04T16:39:51.433Z,10.38
2023-03-04T16:42:22.939Z,8.95
2023-03-04T16:44:55.215Z,7.93
2023-03-04T16:47:26.662Z,5.60
2023-03-04T16:49:58.133Z,8.25
2023-03-04T16:52:31.825Z,5.85
2023-03-04T16:55:03.546Z,9.45
2023-03-04T16:57:34.992Z,6.35
2023-03-04T17:00:07.143Z,6.10
2023-03-04T17:02:38.836Z,3.33
2023-03-04T17:05:16.977Z,5.47
2023-03-04T17:07:48.373Z,5.30
2023-03-04T17:10:20.354Z,5.93
2023-03-04T17:12:52.055Z,8.30
2023-03-04T17:15:23.643Z,5.57
2023-03-04T17:17:55.135Z,7.03
2023-03-04T17:20:26.571Z,8.60
2023-03-04T17:22:57.984Z,8.57
2023-03-04T17:25:29.468Z,8.23
2023-03-04T17:28:01.003Z,7.53
2023-03-04T17:30:32.473Z,3.25
2023-03-04T17:33:04.044Z,4.23
2023-03-04T17:35:38.556Z,6.07
2023-03-04T17:38:10.029Z,5.93
2023-03-04T17:40:44.888Z,5.90
2023-03-04T17:43:16.447Z,7.63
2023-03-04T17:45:48.116Z,8.33
2023-03-04T17:48:19.616Z,8.02
2023-03-04T17:50:51.496Z,9.63
2023-03-04T17:53:22.983Z,8.32
2023-03-04T17:56:03.041Z,9.35
2023-03-04T17:58:36.345Z,10.68
2023-03-04T18:01:19.376Z,9.90
2023-03-04T18:03:51.792Z,10.07
2023-03-04T18:06:23.390Z,5.97
2023-03-04T18:08:55.218Z,7.82
2023-03-04T18:11:28.026Z,7.20
2023-03-04T18:13:59.578Z,10.17
2023-03-04T18:16:31.346Z,8.90
2023-03-04T18:19:02.882Z,10.40
2023-03-04T18:21:34.459Z,8.47
2023-03-04T18:24:06.211Z,9.88
2023-03-04T18:26:37.743Z,10.45
2023-03-04T18:29:09.212Z,10.52
2023-03-04T18:31:41.041Z,7.18
2023-03-04T18:34:12.547Z,8.40
2023-03-04T18:36:44.031Z,7.28
2023-03-04T18:39:15.509Z,6.40
2023-03-04T18:41:46.988Z,6.93
2023-03-04T18:44:18.523Z,8.73
2023-03-04T18:46:53.313Z,6.63
2023-03-04T18:49:24.917Z,10.65
2023-03-04T18:51:56.391Z,8.55
2023-03-04T18:54:27.857Z,8.55
2023-03-04T18:57:12.059Z,8.82
2023-03-04T18:59:50.223Z,7.25
2023-03-04T19:02:40.292Z,8.93
2023-03-04T19:05:15.966Z,13.53
2023-03-04T19:07:47.403Z,11.52
2023-03-04T19:10:19.924Z,11.75
2023-03-04T19:12:51.422Z,8.93
2023-03-04T19:15:23.656Z,8.05
2023-03-04T19:17:55.319Z,9.55
2023-03-04T19:20:26.780Z,8.40
2023-03-04T19:22:58.312Z,5.90
2023-03-04T19:25:29.770Z,7.20
2023-03-04T19:28:01.254Z,9.68
2023-03-04T19:30:33.645Z,7.32
2023-03-04T19:33:05.149Z,9.35
2023-03-04T19:35:43.214Z,9.45
2023-03-04T19:38:14.773Z,8.60
2023-03-04T19:40:46.250Z,9.15
2023-03-04T19:43:17.702Z,8.15
2023-03-04T19:45:53.450Z,10.93
2023-03-04T19:48:24.988Z,7.85
2023-03-04T19:50:56.562Z,8.90
2023-03-04T19:53:28.038Z,7.40
2023-03-04T19:55:59.492Z,7.55
2023-03-04T19:58:30.923Z,8.88
2023-03-04T20:01:02.595Z,5.65
2023-03-04T20:03:34.104Z,7.00
2023-03-04T20:06:07.306Z,5.00
2023-03-04T20:08:38.735Z,6.03
2023-03-04T20:11:13.307Z,5.78
2023-03-04T20:13:45.080Z,7.70
2023-03-04T20:16:16.760Z,8.57
2023-03-04T20:18:48.190Z,7.57
2023-03-04T20:21:19.913Z,8.33
2023-03-04T20:23:51.452Z,8.20
2023-03-04T20:26:22.882Z,11.48
2023-03-04T20:28:54.601Z,11.00
2023-03-04T20:31:32.048Z,9.43
2023-03-04T20:34:03.669Z,10.20
2023-03-04T20:36:35.348Z,11.02
2023-03-04T20:39:21.477Z,10.82
2023-03-04T20:41:59.750Z,10.50
2023-03-04T20:44:31.329Z,7.72
2023-03-04T20:47:02.775Z,10.15
2023-03-04T20:49:34.216Z,10.43
2023-03-04T20:52:05.796Z,7.50
2023-03-04T20:54:39.021Z,9.30
2023-03-04T20:57:11.517Z,15.65
2023-03-04T20:59:42.965Z,9.73
2023-03-04T21:02:16.131Z,9.75
2023-03-04T21:04:47.631Z,11.43
2023-03-04T21:07:19.072Z,10.13
2023-03-04T21:09:50.522Z,14.45
2023-03-04T21:12:22.007Z,8.13
2023-03-04T21:14:53.479Z,11.10
2023-03-04T21:17:24.926Z,9.05
2023-03-04T21:19:56.396Z,9.60
2023-03-04T21:22:28.032Z,11.93
2023-03-04T21:24:59.462Z,9.73
2023-03-04T21:27:30.843Z,10.05
2023-03-04T21:30:02.322Z,11.93
2023-03-04T21:32:34.112Z,12.20
2023-03-04T21:35:06.053Z,10.90
2023-03-04T21:37:37.507Z,8.57
2023-03-04T21:40:10.047Z,12.77
2023-03-04T21:42:41.467Z,8.55
2023-03-04T21:45:12.935Z,8.93
2023-03-04T21:47:44.439Z,8.50
2023-03-04T21:50:16.375Z,11.90
2023-03-04T21:52:47.956Z,9.45
2023-03-04T21:55:19.450Z,13.75
2023-03-04T21:57:50.915Z,14.13
2023-03-04T22:00:22.478Z,13.63
2023-03-04T22:02:53.941Z,12.02
2023-03-04T22:05:25.363Z,12.50
2023-03-04T22:07:56.795Z,8.73
2023-03-04T22:10:28.212Z,9.23
2023-03-04T22:12:59.647Z,11.77
2023-03-04T22:15:31.067Z,12.63
2023-03-04T22:18:03.960Z,8.50
2023-03-04T22:20:37.697Z,9.98
2023-03-04T22:23:09.820Z,7.47
2023-03-04T22:25:41.810Z,7.30
2023-03-04T22:28:13.336Z,13.50
2023-03-04T22:30:44.813Z,7.75
2023-03-04T22:33:16.235Z,9.35
2023-03-04T22:35:47.898Z,7.72
2023-03-04T22:38:21.136Z,10.07
2023-03-04T22:40:52.624Z,7.10
2023-03-04T22:43:24.100Z,5.68
2023-03-04T22:45:55.640Z,8.02
2023-03-04T22:48:27.311Z,9.50
2023-03-04T22:51:05.569Z,9.15
2023-03-04T22:53:37.458Z,11.90
2023-03-04T22:56:10.191Z,6.20
2023-03-04T22:58:43.104Z,9.07
2023-03-04T23:01:16.475Z,7.63
2023-03-04T23:03:49.451Z,7.53
2023-03-04T23:06:23.604Z,7.75
2023-03-04T23:08:55.136Z,7.07
2023-03-04T23:11:30.100Z,7.10
2023-03-04T23:14:01.593Z,8.05
2023-03-04T23:16:33.890Z,8.15
2023-03-04T23:19:06.469Z,7.93
2023-03-04T23:21:38.406Z,6.38
2023-03-04T23:24:11.188Z,10.57
2023-03-04T23:26:43.298Z,8.77
2023-03-04T23:29:15.678Z,7.70
2023-03-04T23:31:47.145Z,9.07
2023-03-04T23:34:18.662Z,8.45
2023-03-04T23:36:50.132Z,8.07
2023-03-04T23:39:21.600Z,9.40
2023-03-04T23:41:53.041Z,10.02
2023-03-04T23:44:24.583Z,9.00
2023-03-04T23:46:56.013Z,6.47
2023-03-04T23:49:27.501Z,10.27
2023-03-04T23:51:58.994Z,7.78
2023-03-04T23:54:30.509Z,7.90
2023-03-04T23:57:02.289Z,6.80
2023-03-04T23:59:33.682Z,7.15
